createdAt,value
2022-08-02T00:01:03.947Z,18.28
2022-08-02T00:03:33.860Z,18.28
2022-08-02T00:06:04.294Z,18.28
2022-08-02T00:08:33.379Z,18.23
2022-08-02T00:11:01.605Z,18.29
2022-08-02T00:13:30.050Z,18.32
2022-08-02T00:15:58.359Z,18.13
2022-08-02T00:18:26.602Z,18.08
2022-08-02T00:20:54.840Z,18.02
2022-08-02T00:23:25.133Z,17.90
2022-08-02T00:25:54.898Z,17.77
2022-08-02T00:28:27.246Z,17.76
2022-08-02T00:30:57.309Z,17.72
2022-08-02T00:34:26.938Z,17.71
2022-08-02T00:36:13.923Z,17.53
2022-08-02T00:38:43.575Z,17.53
2022-08-02T00:41:18.994Z,17.33
2022-08-02T00:43:48.804Z,17.37
2022-08-02T00:46:18.425Z,17.50
2022-08-02T00:48:46.835Z,17.36
2022-08-02T00:51:17.633Z,17.38
2022-08-02T00:53:47.382Z,17.47
2022-08-02T00:56:15.633Z,17.35
2022-08-02T00:58:43.890Z,17.37
2022-08-02T01:01:12.151Z,17.34
2022-08-02T01:03:40.453Z,17.33
2022-08-02T01:06:11.430Z,17.12
2022-08-02T01:08:40.551Z,17.23
2022-08-02T01:11:10.150Z,17.25
2022-08-02T01:13:38.435Z,17.12
2022-08-02T01:16:16.069Z,17.16
2022-08-02T01:18:50.311Z,16.98
2022-08-02T01:21:54.437Z,16.97
2022-08-02T01:24:49.427Z,17.31
2022-08-02T01:27:35.155Z,16.85
2022-08-02T01:30:11.417Z,16.90
2022-08-02T01:32:52.098Z,16.80
2022-08-02T01:35:28.247Z,16.69
2022-08-02T01:38:00.286Z,16.77
2022-08-02T01:40:32.191Z,16.63
2022-08-02T01:43:01.940Z,16.60
2022-08-02T01:45:36.889Z,16.63
2022-08-02T01:48:07.140Z,16.62
2022-08-02T01:50:38.429Z,16.53
2022-08-02T01:53:09.826Z,16.56
2022-08-02T01:55:58.183Z,16.44
2022-08-02T01:58:31.420Z,16.45
2022-08-02T02:01:02.158Z,16.40
2022-08-02T02:03:33.714Z,16.49
2022-08-02T02:06:05.488Z,16.57
2022-08-02T02:08:38.362Z,15.74
2022-08-02T02:12:05.820Z,15.83
2022-08-02T02:13:59.266Z,16.56
2022-08-02T02:16:31.982Z,16.39
2022-08-02T02:19:07.153Z,16.25
2022-08-02T02:21:35.401Z,16.28
2022-08-02T02:24:08.264Z,16.20
2022-08-02T02:26:52.043Z,16.16
2022-08-02T02:29:22.947Z,15.80
2022-08-02T02:31:56.063Z,15.90
2022-08-02T02:34:29.688Z,16.00
2022-08-02T02:37:03.003Z,15.89
2022-08-02T02:39:33.531Z,15.88
2022-08-02T02:42:05.230Z,15.85
2022-08-02T02:44:34.587Z,15.84
2022-08-02T02:47:04.937Z,15.95
2022-08-02T02:49:36.260Z,15.94
2022-08-02T02:52:05.877Z,15.86
2022-08-02T02:54:35.678Z,15.91
2022-08-02T02:57:06.986Z,15.81
2022-08-02T02:59:36.568Z,15.81
2022-08-02T03:02:15.515Z,15.67
2022-08-02T03:04:57.101Z,15.72
2022-08-02T03:07:27.368Z,15.59
2022-08-02T03:09:56.044Z,15.64
2022-08-02T03:12:31.334Z,15.67
2022-08-02T03:15:04.128Z,15.70
2022-08-02T03:17:41.732Z,15.63
2022-08-02T03:20:13.568Z,15.67
2022-08-02T03:22:42.663Z,15.77
2022-08-02T03:25:12.188Z,15.61
2022-08-02T03:27:41.257Z,15.53
2022-08-02T03:30:12.639Z,15.61
2022-08-02T03:32:45.398Z,15.50
2022-08-02T03:35:21.283Z,15.66
2022-08-02T03:37:53.982Z,15.58
2022-08-02T03:40:23.140Z,15.56
2022-08-02T03:42:52.144Z,15.61
2022-08-02T03:45:21.091Z,15.52
2022-08-02T03:47:51.675Z,15.35
2022-08-02T03:50:22.896Z,15.49
2022-08-02T03:52:51.964Z,15.52
2022-08-02T03:55:20.362Z,15.43
2022-08-02T03:57:49.308Z,15.43
2022-08-02T04:00:23.174Z,15.34
2022-08-02T04:02:53.250Z,15.13
2022-08-02T04:05:22.160Z,15.30
2022-08-02T04:08:33.000Z,14.84
2022-08-02T04:10:54.041Z,15.07
2022-08-02T04:13:24.845Z,14.58
2022-08-02T04:16:00.926Z,15.20
2022-08-02T04:18:38.220Z,15.19
2022-08-02T04:21:07.532Z,15.31
2022-08-02T04:23:37.770Z,15.18
2022-08-02T04:26:08.652Z,15.03
2022-08-02T04:28:39.912Z,15.38
2022-08-02T04:31:08.919Z,15.48
2022-08-02T04:33:39.242Z,15.47
2022-08-02T04:36:08.633Z,15.65
2022-08-02T04:38:36.907Z,15.62
2022-08-02T04:41:05.310Z,15.71
2022-08-02T04:43:33.524Z,15.77
2022-08-02T04:46:02.813Z,15.79
2022-08-02T04:48:31.934Z,15.56
2022-08-02T04:51:01.950Z,16.06
2022-08-02T04:53:30.223Z,16.12
2022-08-02T04:55:58.535Z,16.21
2022-08-02T04:58:42.006Z,16.25
2022-08-02T05:01:10.298Z,16.40
2022-08-02T05:03:38.865Z,16.43
2022-08-02T05:06:18.657Z,16.53
2022-08-02T05:08:52.497Z,16.66
2022-08-02T05:11:22.357Z,16.75
2022-08-02T05:14:02.502Z,16.78
2022-08-02T05:16:32.007Z,17.00
2022-08-02T05:19:01.073Z,16.99
2022-08-02T05:21:31.355Z,17.04
2022-08-02T05:23:59.701Z,17.10
2022-08-02T05:26:27.938Z,17.25
2022-08-02T05:28:56.239Z,17.26
2022-08-02T05:31:24.567Z,17.42
2022-08-02T05:33:52.841Z,17.50
2022-08-02T05:36:21.597Z,17.86
2022-08-02T05:38:51.949Z,17.85
2022-08-02T05:41:21.166Z,18.18
2022-08-02T05:43:49.606Z,18.16
2022-08-02T05:46:17.937Z,18.27
2022-08-02T05:48:46.577Z,18.27
2022-08-02T05:51:24.265Z,18.32
2022-08-02T05:54:04.337Z,18.42
2022-08-02T05:56:38.529Z,18.48
2022-08-02T05:59:13.720Z,18.52
2022-08-02T06:01:44.910Z,18.62
2022-08-02T06:04:24.455Z,18.73
2022-08-02T06:06:57.061Z,18.83
2022-08-02T06:09:28.164Z,18.84
2022-08-02T06:12:02.831Z,18.95
2022-08-02T06:14:33.865Z,19.06
2022-08-02T06:17:05.194Z,18.94
2022-08-02T06:19:47.061Z,19.11
2022-08-02T06:22:31.642Z,19.12
2022-08-02T06:25:11.757Z,19.16
2022-08-02T06:27:56.958Z,19.36
2022-08-02T06:30:25.560Z,19.39
2022-08-02T06:32:54.653Z,19.13
2022-08-02T06:35:23.457Z,19.40
2022-08-02T06:37:58.806Z,19.62
2022-08-02T06:40:37.430Z,19.62
2022-08-02T06:43:13.880Z,19.64
2022-08-02T06:45:42.273Z,19.61
2022-08-02T06:48:11.521Z,19.80
2022-08-02T06:50:42.064Z,19.91
2022-08-02T06:53:11.797Z,19.83
2022-08-02T06:55:43.720Z,20.38
2022-08-02T06:58:13.533Z,20.28
2022-08-02T07:00:43.814Z,20.46
2022-08-02T07:03:12.300Z,20.52
2022-08-02T07:05:41.473Z,20.51
2022-08-02T07:08:09.829Z,20.72
2022-08-02T07:10:38.051Z,20.72
2022-08-02T07:13:07.712Z,20.80
2022-08-02T07:15:36.032Z,20.80
2022-08-02T07:18:04.661Z,20.85
2022-08-02T07:20:33.444Z,21.05
2022-08-02T07:23:01.657Z,21.04
2022-08-02T07:26:01.709Z,21.05
2022-08-02T07:28:24.225Z,21.18
2022-08-02T07:30:53.027Z,21.20
2022-08-02T07:33:38.732Z,21.17
2022-08-02T07:36:09.806Z,21.50
2022-08-02T07:38:45.729Z,21.54
2022-08-02T07:41:15.176Z,21.49
2022-08-02T07:43:44.994Z,21.86
2022-08-02T07:46:13.287Z,21.84
2022-08-02T07:48:41.578Z,21.96
2022-08-02T07:51:12.976Z,21.79
2022-08-02T07:53:50.869Z,21.70
2022-08-02T07:56:30.256Z,22.00
2022-08-02T07:58:59.849Z,22.09
2022-08-02T08:01:28.171Z,22.36
2022-08-02T08:03:57.197Z,22.12
2022-08-02T08:06:29.020Z,22.47
2022-08-02T08:08:57.619Z,22.19
2022-08-02T08:11:26.070Z,22.35
2022-08-02T08:13:54.553Z,22.49
2022-08-02T08:16:26.205Z,22.78
2022-08-02T08:18:55.006Z,22.66
2022-08-02T08:21:23.638Z,22.48
2022-08-02T08:23:51.954Z,22.62
2022-08-02T08:26:20.160Z,22.86
2022-08-02T08:28:48.436Z,23.08
2022-08-02T08:31:16.868Z,22.92
2022-08-02T08:33:46.507Z,23.00
2022-08-02T08:36:16.607Z,23.04
2022-08-02T08:38:45.067Z,23.26
2022-08-02T08:41:13.309Z,23.28
2022-08-02T08:43:41.651Z,23.48
2022-08-02T08:46:15.173Z,23.71
2022-08-02T08:48:48.039Z,23.27
2022-08-02T08:51:20.919Z,23.62
2022-08-02T08:53:50.799Z,23.54
2022-08-02T08:56:20.046Z,23.72
2022-08-02T08:58:48.752Z,23.49
2022-08-02T09:01:17.747Z,23.63
2022-08-02T09:03:47.664Z,23.78
2022-08-02T09:06:16.080Z,24.14
2022-08-02T09:08:44.648Z,24.33
2022-08-02T09:11:18.065Z,24.68
2022-08-02T09:13:53.064Z,24.70
2022-08-02T09:16:35.236Z,24.94
2022-08-02T09:19:20.527Z,25.21
2022-08-02T09:21:51.564Z,25.63
2022-08-02T09:24:22.471Z,25.58
2022-08-02T09:26:52.113Z,25.96
2022-08-02T09:29:24.669Z,25.77
2022-08-02T09:31:53.569Z,26.01
2022-08-02T09:34:23.488Z,26.13
2022-08-02T09:36:54.395Z,26.16
2022-08-02T09:39:26.433Z,26.50
2022-08-02T09:42:10.519Z,26.63
2022-08-02T09:44:39.149Z,26.79
2022-08-02T09:47:17.574Z,27.09
2022-08-02T09:49:52.195Z,27.28
2022-08-02T09:52:37.209Z,27.00
2022-08-02T09:55:13.041Z,27.18
2022-08-02T09:57:41.627Z,27.55
2022-08-02T10:00:15.068Z,27.57
2022-08-02T10:03:08.249Z,27.10
2022-08-02T10:05:55.754Z,26.60
2022-08-02T10:08:26.934Z,26.56
2022-08-02T10:11:01.364Z,26.58
2022-08-02T10:13:31.938Z,26.40
2022-08-02T10:16:00.369Z,26.33
2022-08-02T10:18:38.699Z,25.61
2022-08-02T10:21:29.488Z,25.77
2022-08-02T10:24:06.800Z,25.61
2022-08-02T10:26:35.918Z,25.78
2022-08-02T10:29:04.811Z,26.04
2022-08-02T10:31:40.119Z,26.39
2022-08-02T10:34:12.720Z,26.70
2022-08-02T10:36:43.836Z,26.72
2022-08-02T10:39:12.371Z,26.66
2022-08-02T10:41:46.235Z,26.52
2022-08-02T10:44:27.326Z,26.69
2022-08-02T10:47:26.703Z,26.80
2022-08-02T10:49:57.208Z,27.01
2022-08-02T10:52:27.876Z,26.49
2022-08-02T10:54:59.330Z,26.45
2022-08-02T10:57:29.555Z,26.34
2022-08-02T11:00:00.151Z,26.59
2022-08-02T11:02:38.255Z,27.13
2022-08-02T11:05:13.929Z,27.37
2022-08-02T11:07:49.217Z,27.90
2022-08-02T11:10:38.533Z,27.98
2022-08-02T11:13:10.823Z,27.71
2022-08-02T11:16:03.692Z,26.98
2022-08-02T11:19:07.122Z,27.11
2022-08-02T11:21:36.669Z,27.06
2022-08-02T11:24:29.540Z,27.61
2022-08-02T11:26:58.996Z,27.91
2022-08-02T11:29:38.986Z,27.79
2022-08-02T11:32:09.608Z,28.40
2022-08-02T11:34:41.094Z,28.72
2022-08-02T11:37:10.295Z,28.38
2022-08-02T11:39:39.913Z,27.68
2022-08-02T11:42:09.144Z,27.67
2022-08-02T11:44:44.742Z,27.25
2022-08-02T11:47:14.135Z,27.59
2022-08-02T11:49:44.779Z,27.57
2022-08-02T11:52:13.262Z,27.69
2022-08-02T11:54:44.620Z,27.13
2022-08-02T11:57:22.061Z,27.41
2022-08-02T11:59:52.760Z,27.67
2022-08-02T12:02:22.980Z,27.76
2022-08-02T12:04:58.492Z,28.12
2022-08-02T12:07:34.265Z,28.49
2022-08-02T12:10:08.717Z,29.18
2022-08-02T12:12:50.133Z,29.46
2022-08-02T12:15:35.142Z,29.84
2022-08-02T12:18:22.111Z,29.63
2022-08-02T12:20:50.463Z,29.65
2022-08-02T12:23:18.804Z,29.71
2022-08-02T12:26:00.890Z,28.59
2022-08-02T12:28:29.160Z,28.92
2022-08-02T12:31:00.372Z,29.24
2022-08-02T12:33:31.068Z,28.78
2022-08-02T12:35:59.278Z,28.43
2022-08-02T12:38:27.605Z,28.26
2022-08-02T12:40:57.370Z,28.62
2022-08-02T12:43:26.040Z,29.10
2022-08-02T12:45:57.478Z,29.51
2022-08-02T12:48:37.833Z,29.37
2022-08-02T12:51:56.391Z,29.63
2022-08-02T12:54:18.018Z,30.17
2022-08-02T12:56:48.754Z,30.29
2022-08-02T12:59:17.555Z,30.12
2022-08-02T13:01:46.640Z,30.25
2022-08-02T13:04:16.606Z,30.47
2022-08-02T13:06:45.702Z,29.76
2022-08-02T13:09:17.340Z,29.33
2022-08-02T13:11:47.665Z,29.61
2022-08-02T13:14:16.845Z,29.45
2022-08-02T13:16:47.084Z,29.37
2022-08-02T13:19:16.270Z,29.62
2022-08-02T13:22:02.739Z,29.71
2022-08-02T13:24:39.942Z,29.95
2022-08-02T13:27:11.767Z,29.24
2022-08-02T13:29:40.014Z,29.78
2022-08-02T13:32:08.370Z,30.24
2022-08-02T13:34:37.011Z,29.71
2022-08-02T13:37:05.812Z,30.35
2022-08-02T13:39:34.078Z,30.29
2022-08-02T13:42:02.303Z,30.42
2022-08-02T13:44:31.921Z,29.91
2022-08-02T13:47:00.328Z,30.24
2022-08-02T13:49:50.841Z,30.49
2022-08-02T13:52:17.095Z,30.76
2022-08-02T13:54:45.647Z,30.53
2022-08-02T13:57:13.874Z,30.80
2022-08-02T13:59:58.194Z,31.30
2022-08-02T14:02:52.319Z,30.54
2022-08-02T14:05:38.675Z,30.28
2022-08-02T14:08:13.201Z,30.16
2022-08-02T14:10:46.432Z,30.12
2022-08-02T14:13:14.792Z,30.47
2022-08-02T14:15:44.832Z,30.72
2022-08-02T14:18:14.740Z,31.37
2022-08-02T14:20:43.420Z,31.08
2022-08-02T14:23:11.809Z,30.98
2022-08-02T14:25:40.181Z,31.49
2022-08-02T14:28:08.653Z,31.92
2022-08-02T14:30:37.063Z,31.57
2022-08-02T14:33:06.704Z,31.63
2022-08-02T14:35:35.389Z,31.56
2022-08-02T14:38:03.586Z,30.62
2022-08-02T14:40:32.333Z,31.61
2022-08-02T14:43:01.376Z,31.55
2022-08-02T14:45:40.455Z,31.04
2022-08-02T14:48:12.405Z,30.94
2022-08-02T14:50:41.084Z,31.46
2022-08-02T14:53:12.716Z,31.47
2022-08-02T14:55:42.786Z,31.28
2022-08-02T14:58:11.399Z,30.76
2022-08-02T15:00:41.649Z,30.27
2022-08-02T15:03:13.861Z,30.22
2022-08-02T15:05:42.172Z,29.32
2022-08-02T15:08:10.378Z,29.63
2022-08-02T15:10:38.652Z,29.50
2022-08-02T15:13:09.424Z,29.74
2022-08-02T15:15:43.411Z,29.64
2022-08-02T15:18:14.899Z,29.62
2022-08-02T15:20:49.238Z,29.71
2022-08-02T15:23:37.204Z,29.61
2022-08-02T15:26:06.078Z,29.48
2022-08-02T15:28:34.460Z,29.36
2022-08-02T15:31:02.755Z,29.82
2022-08-02T15:33:32.366Z,29.68
2022-08-02T15:36:01.031Z,30.21
2022-08-02T15:38:29.281Z,30.39
2022-08-02T15:40:57.566Z,30.43
2022-08-02T15:43:26.102Z,30.37
2022-08-02T15:45:54.382Z,29.82
2022-08-02T15:48:22.860Z,29.85
2022-08-02T15:50:52.567Z,29.76
2022-08-02T15:53:20.793Z,29.84
2022-08-02T15:56:04.046Z,29.96
2022-08-02T15:58:42.534Z,29.70
2022-08-02T16:01:13.170Z,29.61
2022-08-02T16:03:50.592Z,29.44
2022-08-02T16:06:20.498Z,29.31
2022-08-02T16:08:53.687Z,29.09
2022-08-02T16:11:24.424Z,29.06
2022-08-02T16:13:54.681Z,29.01
2022-08-02T16:16:24.284Z,28.97
2022-08-02T16:18:52.661Z,28.88
2022-08-02T16:21:24.589Z,28.95
2022-08-02T16:23:58.575Z,29.04
2022-08-02T16:26:31.605Z,29.15
2022-08-02T16:29:01.478Z,29.33
2022-08-02T16:31:30.229Z,29.03
2022-08-02T16:33:58.479Z,28.67
2022-08-02T16:36:29.017Z,28.66
2022-08-02T16:38:58.064Z,27.83
2022-08-02T16:41:51.873Z,28.57
2022-08-02T16:44:15.772Z,28.59
2022-08-02T16:46:45.698Z,28.48
2022-08-02T16:50:05.217Z,28.46
2022-08-02T16:52:03.964Z,28.31
2022-08-02T16:54:32.355Z,28.66
2022-08-02T16:57:00.616Z,28.66
2022-08-02T16:59:41.898Z,28.79
2022-08-02T17:02:17.945Z,28.71
2022-08-02T17:04:47.499Z,28.87
2022-08-02T17:08:10.399Z,28.69
2022-08-02T17:10:09.234Z,28.77
2022-08-02T17:12:39.808Z,28.72
2022-08-02T17:16:16.439Z,28.66
2022-08-02T17:18:00.346Z,28.43
2022-08-02T17:20:29.117Z,28.54
2022-08-02T17:23:00.613Z,28.56
2022-08-02T17:25:31.835Z,28.48
2022-08-02T17:28:00.480Z,28.49
2022-08-02T17:30:29.764Z,28.44
2022-08-02T17:32:59.329Z,28.47
2022-08-02T17:35:51.997Z,28.48
2022-08-02T17:38:26.563Z,28.55
2022-08-02T17:40:55.981Z,28.50
2022-08-02T17:43:29.183Z,28.57
2022-08-02T17:46:02.229Z,28.51
2022-08-02T17:48:54.832Z,28.28
2022-08-02T17:51:33.224Z,28.31
2022-08-02T17:54:14.565Z,27.95
2022-08-02T17:56:48.180Z,27.79
2022-08-02T17:59:20.604Z,28.34
2022-08-02T18:01:54.271Z,28.03
2022-08-02T18:07:17.387Z,27.98
2022-08-02T18:09:55.131Z,27.92
2022-08-02T18:12:23.346Z,27.99
2022-08-02T18:14:52.513Z,27.99
2022-08-02T18:17:20.838Z,27.89
2022-08-02T18:19:53.983Z,27.94
2022-08-02T18:22:33.622Z,27.93
2022-08-02T18:25:09.554Z,27.92
2022-08-02T18:27:38.920Z,27.92
2022-08-02T18:30:09.289Z,27.96
2022-08-02T18:33:59.212Z,27.75
2022-08-02T18:35:29.451Z,27.71
2022-08-02T18:38:03.642Z,27.62
2022-08-02T18:40:33.906Z,27.49
2022-08-02T18:43:03.419Z,27.39
2022-08-02T18:45:36.838Z,27.22
2022-08-02T18:48:23.959Z,26.93
2022-08-02T18:50:58.302Z,26.74
2022-08-02T18:53:28.242Z,26.40
2022-08-02T18:56:20.130Z,26.29
2022-08-02T18:58:54.457Z,26.03
2022-08-02T19:01:33.672Z,26.13
2022-08-02T19:04:04.744Z,25.93
2022-08-02T19:06:33.074Z,25.92
2022-08-02T19:09:11.212Z,25.55
2022-08-02T19:11:47.327Z,25.52
2022-08-02T19:14:27.862Z,25.04
2022-08-02T19:16:57.951Z,25.23
2022-08-02T19:19:29.124Z,25.28
2022-08-02T19:22:17.674Z,24.98
2022-08-02T19:24:47.809Z,24.79
2022-08-02T19:27:25.585Z,24.85
2022-08-02T19:29:54.632Z,24.63
2022-08-02T19:32:42.237Z,24.70
2022-08-02T19:35:19.630Z,24.36
2022-08-02T19:38:07.189Z,24.25
2022-08-02T19:40:35.744Z,24.15
2022-08-02T19:44:27.559Z,24.03
2022-08-02T19:45:57.025Z,23.93
2022-08-02T19:48:26.971Z,23.90
2022-08-02T19:51:00.474Z,23.84
2022-08-02T19:53:46.910Z,23.68
2022-08-02T19:56:21.184Z,23.66
2022-08-02T19:58:57.624Z,23.59
2022-08-02T20:01:38.709Z,23.53
2022-08-02T20:04:13.094Z,23.45
2022-08-02T20:06:45.936Z,23.40
2022-08-02T20:09:17.152Z,23.21
2022-08-02T20:11:54.046Z,23.18
2022-08-02T20:14:26.857Z,23.09
2022-08-02T20:16:57.098Z,22.88
2022-08-02T20:19:29.067Z,22.67
2022-08-02T20:22:00.335Z,22.54
2022-08-02T20:24:29.661Z,22.66
2022-08-02T20:26:59.029Z,22.53
2022-08-02T20:29:43.427Z,21.94
2022-08-02T20:32:22.902Z,22.36
2022-08-02T20:34:52.415Z,22.17
2022-08-02T20:37:59.497Z,22.13
2022-08-02T20:40:16.881Z,22.00
2022-08-02T20:42:47.878Z,21.91
2022-08-02T20:45:18.085Z,21.85
2022-08-02T20:47:49.746Z,21.62
2022-08-02T20:50:38.511Z,21.52
2022-08-02T20:53:08.149Z,21.65
2022-08-02T20:55:55.506Z,21.42
2022-08-02T20:58:27.246Z,21.31
2022-08-02T21:00:59.776Z,21.34
2022-08-02T21:03:39.102Z,21.34
2022-08-02T21:06:09.794Z,21.51
2022-08-02T21:08:38.202Z,21.27
2022-08-02T21:11:09.395Z,21.21
2022-08-02T21:13:46.716Z,21.81
2022-08-02T21:16:30.635Z,21.24
2022-08-02T21:19:00.258Z,20.94
2022-08-02T21:21:29.775Z,20.74
2022-08-02T21:23:59.168Z,20.55
2022-08-02T21:26:31.024Z,20.70
2022-08-02T21:29:03.580Z,20.46
2022-08-02T21:31:36.108Z,20.33
2022-08-02T21:34:07.620Z,20.43
2022-08-02T21:36:51.076Z,20.37
2022-08-02T21:39:20.396Z,20.23
2022-08-02T21:41:49.387Z,20.07
2022-08-02T21:44:19.415Z,20.09
2022-08-02T21:46:50.966Z,20.01
2022-08-02T21:49:20.502Z,19.99
2022-08-02T21:54:39.810Z,19.90
2022-08-02T21:57:15.608Z,20.00
2022-08-02T21:59:46.260Z,20.13
2022-08-02T22:02:31.066Z,20.19
2022-08-02T22:04:59.426Z,20.05
2022-08-02T22:07:38.438Z,20.03
2022-08-02T22:10:09.729Z,19.84
2022-08-02T22:12:38.098Z,20.48
2022-08-02T22:15:10.554Z,19.66
2022-08-02T22:17:53.625Z,19.67
2022-08-02T22:20:29.142Z,19.58
2022-08-02T22:22:57.608Z,19.38
2022-08-02T22:25:31.219Z,19.26
2022-08-02T22:28:38.404Z,19.12
2022-08-02T22:30:56.989Z,19.15
2022-08-02T22:33:47.167Z,19.19
2022-08-02T22:36:30.356Z,19.18
2022-08-02T22:38:59.176Z,19.07
2022-08-02T22:42:02.050Z,18.97
2022-08-02T22:44:18.418Z,19.04
2022-08-02T22:46:50.104Z,18.93
2022-08-02T22:49:38.738Z,18.83
2022-08-02T22:52:08.761Z,18.84
2022-08-02T22:54:39.281Z,18.83
2022-08-02T22:57:11.472Z,18.81
2022-08-02T22:59:12.445Z,19.93
2022-08-02T22:59:41.078Z,18.70
2022-08-02T23:02:10.422Z,18.74
2022-08-02T23:04:40.213Z,18.59
2022-08-02T23:07:08.482Z,18.53
2022-08-02T23:09:36.885Z,18.65
2022-08-02T23:12:06.150Z,18.61
2022-08-02T23:14:34.473Z,18.53
2022-08-02T23:17:20.379Z,18.38
2022-08-02T23:19:53.068Z,18.44
2022-08-02T23:22:24.197Z,18.26
2022-08-02T23:24:59.660Z,18.14
2022-08-02T23:27:28.196Z,18.01
2022-08-02T23:29:56.468Z,17.96
2022-08-02T23:32:26.163Z,17.90
2022-08-02T23:34:56.675Z,17.74
2022-08-02T23:37:25.929Z,17.68
2022-08-02T23:39:54.225Z,17.69
2022-08-02T23:42:23.398Z,17.82
2022-08-02T23:44:51.852Z,17.65
2022-08-02T23:47:20.782Z,17.77
2022-08-02T23:49:49.328Z,16.98
2022-08-02T23:52:19.351Z,17.56
2022-08-02T23:54:47.687Z,17.65
2022-08-02T23:57:19.783Z,17.62
2022-08-02T23:59:51.629Z,17.47
